createdAt,value
2018-11-13T00:00:46.240Z,5.50
2018-11-13T00:03:16.229Z,6.47
2018-11-13T00:05:45.940Z,6.23
2018-11-13T00:08:15.187Z,5.60
2018-11-13T00:10:45.421Z,6.20
2018-11-13T00:13:14.150Z,9.50
2018-11-13T00:15:45.139Z,4.63
2018-11-13T00:18:15.255Z,6.63
2018-11-13T00:20:45.694Z,6.40
2018-11-13T00:23:17.984Z,6.50
2018-11-13T00:25:47.235Z,5.60
2018-11-13T00:28:23.069Z,10.07
2018-11-13T00:30:51.944Z,5.20
2018-11-13T00:33:21.007Z,5.67
2018-11-13T00:35:51.027Z,5.77
2018-11-13T00:38:20.803Z,5.87
2018-11-13T00:40:50.586Z,5.33
2018-11-13T00:43:21.285Z,4.60
2018-11-13T00:45:51.972Z,5.77
2018-11-13T00:48:21.692Z,5.13
2018-11-13T00:50:53.112Z,7.47
2018-11-13T00:53:22.868Z,4.57
2018-11-13T00:55:52.511Z,6.97
2018-11-13T00:58:22.242Z,5.20
2018-11-13T01:00:51.649Z,4.40
2018-11-13T01:06:15.471Z,6.13
2018-11-13T01:08:45.306Z,4.10
2018-11-13T01:11:16.862Z,6.90
2018-11-13T01:13:45.911Z,4.57
2018-11-13T01:16:15.019Z,4.20
2018-11-13T01:18:46.620Z,5.47
2018-11-13T01:21:17.272Z,6.57
2018-11-13T01:23:49.969Z,5.33
2018-11-13T01:26:19.768Z,3.90
2018-11-13T01:28:49.986Z,4.60
2018-11-13T01:31:19.920Z,5.10
2018-11-13T01:33:48.984Z,4.37
2018-11-13T01:36:18.204Z,7.13
2018-11-13T01:38:47.776Z,5.30
2018-11-13T01:41:17.710Z,6.57
2018-11-13T01:43:47.847Z,6.93
2018-11-13T01:46:16.684Z,4.30
2018-11-13T01:48:45.968Z,4.87
2018-11-13T01:51:14.854Z,5.70
2018-11-13T01:53:45.839Z,6.47
2018-11-13T01:56:16.315Z,6.93
2018-11-13T01:58:47.973Z,4.23
2018-11-13T02:01:18.076Z,6.13
2018-11-13T02:03:47.728Z,6.70
2018-11-13T02:06:16.248Z,4.73
2018-11-13T02:08:46.247Z,4.60
2018-11-13T02:11:15.421Z,5.77
2018-11-13T02:13:45.373Z,4.73
2018-11-13T02:16:15.079Z,6.37
2018-11-13T02:18:45.514Z,6.70
2018-11-13T02:21:14.070Z,4.70
2018-11-13T02:23:44.590Z,7.53
2018-11-13T02:26:15.333Z,8.50
2018-11-13T02:28:45.486Z,7.53
2018-11-13T02:31:15.226Z,4.07
2018-11-13T02:33:44.771Z,3.00
2018-11-13T02:36:14.990Z,3.40
2018-11-13T02:38:44.631Z,3.50
2018-11-13T02:41:13.815Z,3.23
2018-11-13T02:43:43.606Z,3.60
2018-11-13T02:46:14.757Z,4.73
2018-11-13T02:48:45.220Z,1.30
2018-11-13T02:51:14.908Z,2.40
2018-11-13T02:53:44.320Z,1.30
2018-11-13T02:56:14.839Z,1.80
2018-11-13T02:58:44.150Z,1.90
2018-11-13T03:01:13.584Z,4.17
2018-11-13T03:03:43.267Z,2.00
2018-11-13T03:06:15.692Z,2.43
2018-11-13T03:08:45.361Z,1.77
2018-11-13T03:11:15.352Z,2.60
2018-11-13T03:13:46.091Z,2.33
2018-11-13T03:16:14.595Z,3.60
2018-11-13T03:18:43.903Z,2.50
2018-11-13T03:21:13.488Z,1.73
2018-11-13T03:23:45.491Z,3.93
2018-11-13T03:26:15.168Z,2.33
2018-11-13T03:28:44.665Z,2.30
2018-11-13T03:31:14.253Z,1.83
2018-11-13T03:33:44.920Z,2.33
2018-11-13T03:36:15.786Z,1.83
2018-11-13T03:38:45.171Z,2.30
2018-11-13T03:41:15.032Z,3.10
2018-11-13T03:43:45.214Z,2.00
2018-11-13T03:46:16.005Z,2.20
2018-11-13T03:48:45.683Z,1.40
2018-11-13T03:51:14.724Z,1.60
2018-11-13T03:53:44.428Z,1.70
2018-11-13T03:56:14.847Z,1.50
2018-11-13T03:58:44.988Z,2.70
2018-11-13T04:01:14.617Z,1.67
2018-11-13T04:03:44.123Z,2.03
2018-11-13T04:06:13.093Z,2.50
2018-11-13T04:08:41.824Z,1.73
2018-11-13T04:11:10.611Z,1.53
2018-11-13T04:13:40.688Z,1.20
2018-11-13T04:16:10.030Z,3.80
2018-11-13T04:18:44.904Z,1.50
2018-11-13T04:21:14.105Z,2.37
2018-11-13T04:23:45.982Z,1.80
2018-11-13T04:26:16.120Z,1.43
2018-11-13T04:28:46.659Z,1.60
2018-11-13T04:31:17.352Z,1.27
2018-11-13T04:34:48.844Z,1.10
2018-11-13T04:37:18.414Z,1.30
2018-11-13T04:39:47.927Z,1.50
2018-11-13T04:42:16.427Z,1.20
2018-11-13T04:44:45.723Z,1.53
2018-11-13T04:47:18.382Z,1.10
2018-11-13T04:49:47.227Z,1.40
2018-11-13T04:52:18.288Z,1.30
2018-11-13T04:54:48.185Z,2.00
2018-11-13T04:57:18.305Z,1.10
2018-11-13T04:59:49.032Z,1.27
2018-11-13T05:02:18.135Z,1.03
2018-11-13T05:04:48.041Z,1.30
2018-11-13T05:07:17.301Z,2.70
2018-11-13T05:09:49.259Z,1.70
2018-11-13T05:12:18.844Z,1.40
2018-11-13T05:14:48.344Z,1.07
2018-11-13T05:17:17.369Z,1.60
2018-11-13T05:19:48.525Z,1.50
2018-11-13T05:22:17.728Z,1.33
2018-11-13T05:24:50.951Z,1.10
2018-11-13T05:27:19.756Z,1.40
2018-11-13T05:29:49.851Z,1.10
2018-11-13T05:32:23.152Z,1.57
2018-11-13T05:34:52.392Z,1.37
2018-11-13T05:37:21.883Z,1.10
2018-11-13T05:39:52.529Z,1.00
2018-11-13T05:42:25.032Z,1.50
2018-11-13T05:44:54.372Z,2.13
2018-11-13T05:47:25.239Z,1.57
2018-11-13T05:49:56.555Z,1.50
2018-11-13T05:52:25.397Z,1.10
2018-11-13T05:54:55.389Z,1.47
2018-11-13T05:57:27.336Z,1.20
2018-11-13T05:59:57.385Z,7.90
2018-11-13T06:02:26.859Z,1.67
2018-11-13T06:04:56.308Z,1.70
2018-11-13T06:07:26.644Z,1.33
2018-11-13T06:09:57.613Z,1.23
2018-11-13T06:12:26.914Z,1.40
2018-11-13T06:14:55.890Z,2.23
2018-11-13T06:17:25.736Z,1.53
2018-11-13T06:19:58.373Z,1.73
2018-11-13T06:22:28.139Z,3.40
2018-11-13T06:24:58.251Z,1.77
2018-11-13T06:27:30.136Z,2.40
2018-11-13T06:29:59.836Z,3.30
2018-11-13T06:32:29.680Z,2.23
2018-11-13T06:35:00.272Z,1.57
2018-11-13T06:37:29.387Z,1.30
2018-11-13T06:39:59.574Z,1.30
2018-11-13T06:42:29.033Z,1.60
2018-11-13T06:44:59.179Z,1.70
2018-11-13T06:47:32.160Z,1.50
2018-11-13T06:50:01.797Z,2.47
2018-11-13T06:52:32.332Z,1.63
2018-11-13T06:55:10.997Z,1.20
2018-11-13T06:57:40.507Z,4.87
2018-11-13T07:00:11.468Z,1.97
2018-11-13T07:02:41.477Z,1.77
2018-11-13T07:05:11.676Z,1.33
2018-11-13T07:07:40.624Z,1.97
2018-11-13T07:10:14.269Z,1.33
2018-11-13T07:12:45.094Z,1.53
2018-11-13T07:15:16.481Z,1.90
2018-11-13T07:17:47.281Z,3.00
2018-11-13T07:20:20.715Z,3.83
2018-11-13T07:22:50.573Z,2.23
2018-11-13T07:25:20.072Z,1.40
2018-11-13T07:27:49.406Z,1.67
2018-11-13T07:30:22.763Z,1.67
2018-11-13T07:32:52.193Z,2.70
2018-11-13T07:35:22.744Z,2.70
2018-11-13T07:37:55.088Z,3.00
2018-11-13T07:40:25.076Z,1.97
2018-11-13T07:42:56.296Z,2.27
2018-11-13T07:45:25.494Z,1.67
2018-11-13T07:47:55.341Z,1.40
2018-11-13T07:50:24.717Z,1.60
2018-11-13T07:53:03.816Z,1.90
2018-11-13T07:55:34.823Z,1.50
2018-11-13T07:58:04.073Z,3.80
2018-11-13T08:00:33.143Z,1.30
2018-11-13T08:03:13.052Z,1.83
2018-11-13T08:05:42.482Z,2.33
2018-11-13T08:08:11.628Z,3.07
2018-11-13T08:10:42.681Z,2.10
2018-11-13T08:13:12.737Z,1.60
2018-11-13T08:15:42.415Z,1.50
2018-11-13T08:18:11.784Z,1.37
2018-11-13T08:20:40.756Z,2.00
2018-11-13T08:23:10.929Z,1.30
2018-11-13T08:26:04.087Z,2.07
2018-11-13T08:28:34.280Z,1.97
2018-11-13T08:31:04.075Z,1.97
2018-11-13T08:33:33.166Z,2.80
2018-11-13T08:36:03.325Z,2.53
2018-11-13T08:38:33.365Z,1.30
2018-11-13T08:41:03.333Z,2.00
2018-11-13T08:43:32.458Z,2.90
2018-11-13T08:46:01.758Z,2.20
2018-11-13T08:48:31.317Z,1.40
2018-11-13T08:51:01.570Z,1.60
2018-11-13T08:53:32.225Z,1.50
2018-11-13T08:56:01.760Z,2.43
2018-11-13T08:58:30.653Z,1.53
2018-11-13T09:00:59.368Z,1.70
2018-11-13T09:03:29.129Z,2.10
2018-11-13T09:05:58.167Z,1.60
2018-11-13T09:08:27.317Z,1.37
2018-11-13T09:10:56.344Z,1.90
2018-11-13T09:13:25.195Z,1.63
2018-11-13T09:15:57.548Z,1.63
2018-11-13T09:18:27.843Z,1.60
2018-11-13T09:20:57.642Z,1.40
2018-11-13T09:23:27.445Z,1.53
2018-11-13T09:25:59.294Z,3.50
2018-11-13T09:28:30.558Z,1.63
2018-11-13T09:31:01.271Z,3.00
2018-11-13T09:33:30.346Z,3.80
2018-11-13T09:36:00.271Z,3.17
2018-11-13T09:38:30.755Z,1.80
2018-11-13T09:41:00.169Z,2.30
2018-11-13T09:43:29.454Z,1.47
2018-11-13T09:46:01.229Z,4.47
2018-11-13T09:48:30.633Z,1.40
2018-11-13T09:51:04.515Z,1.70
2018-11-13T09:53:33.823Z,2.10
2018-11-13T09:56:04.147Z,1.80
2018-11-13T09:58:35.142Z,1.60
2018-11-13T10:01:05.129Z,1.50
2018-11-13T10:03:36.862Z,2.37
2018-11-13T10:06:05.554Z,1.93
2018-11-13T10:08:35.927Z,2.60
2018-11-13T10:11:05.597Z,1.73
2018-11-13T10:13:36.298Z,1.43
2018-11-13T10:16:05.691Z,1.60
2018-11-13T10:18:34.423Z,1.70
2018-11-13T10:21:04.086Z,2.13
2018-11-13T10:26:18.671Z,2.67
2018-11-13T10:28:48.012Z,2.20
2018-11-13T10:31:18.382Z,3.10
2018-11-13T10:33:47.468Z,2.17
2018-11-13T10:36:17.115Z,1.53
2018-11-13T10:38:47.442Z,1.30
2018-11-13T10:41:20.841Z,2.27
2018-11-13T10:43:50.391Z,2.20
2018-11-13T10:46:20.014Z,2.30
2018-11-13T10:48:49.557Z,1.50
2018-11-13T10:51:19.454Z,3.10
2018-11-13T10:53:48.775Z,2.80
2018-11-13T10:56:22.409Z,2.60
2018-11-13T10:58:52.899Z,1.80
2018-11-13T11:01:27.544Z,2.63
2018-11-13T11:04:04.963Z,2.10
2018-11-13T11:06:34.467Z,1.40
2018-11-13T11:09:04.650Z,3.27
2018-11-13T11:11:34.214Z,1.50
2018-11-13T11:14:02.913Z,1.93
2018-11-13T11:16:31.928Z,1.60
2018-11-13T11:19:03.413Z,3.03
2018-11-13T11:21:32.569Z,2.17
2018-11-13T11:24:02.061Z,2.37
2018-11-13T11:26:31.470Z,2.57
2018-11-13T11:29:00.715Z,2.33
2018-11-13T11:31:30.721Z,3.50
2018-11-13T11:34:00.957Z,2.90
2018-11-13T11:36:31.376Z,2.77
2018-11-13T11:39:02.988Z,3.60
2018-11-13T11:41:34.863Z,1.90
2018-11-13T11:44:04.951Z,4.17
2018-11-13T11:46:36.073Z,1.90
2018-11-13T11:49:05.590Z,2.30
2018-11-13T11:51:38.035Z,2.10
2018-11-13T11:54:08.184Z,1.70
2018-11-13T11:56:46.845Z,2.70
2018-11-13T11:59:16.912Z,4.50
2018-11-13T12:01:46.796Z,4.07
2018-11-13T12:04:16.542Z,2.10
2018-11-13T12:07:01.607Z,1.53
2018-11-13T12:09:31.470Z,3.10
2018-11-13T12:12:00.047Z,1.30
2018-11-13T12:14:30.795Z,1.77
2018-11-13T12:17:00.016Z,2.17
2018-11-13T12:19:38.301Z,2.10
2018-11-13T12:22:07.587Z,1.40
2018-11-13T12:24:38.770Z,3.97
2018-11-13T12:27:07.571Z,1.60
2018-11-13T12:29:38.670Z,2.07
2018-11-13T12:32:07.360Z,3.30
2018-11-13T12:34:38.189Z,1.57
2018-11-13T12:37:07.536Z,1.70
2018-11-13T12:39:36.962Z,1.50
2018-11-13T12:42:16.152Z,1.60
2018-11-13T12:44:44.834Z,2.00
2018-11-13T12:47:14.013Z,2.23
2018-11-13T12:49:44.276Z,1.60
2018-11-13T12:52:16.301Z,2.07
2018-11-13T12:54:47.711Z,2.60
2018-11-13T12:57:17.277Z,1.23
2018-11-13T12:59:46.344Z,1.20
2018-11-13T13:02:15.727Z,1.20
2018-11-13T13:04:45.117Z,1.10
2018-11-13T13:07:15.135Z,1.20
2018-11-13T13:09:44.776Z,1.60
2018-11-13T13:12:15.641Z,1.20
2018-11-13T13:14:45.365Z,2.40
2018-11-13T13:17:14.548Z,1.90
2018-11-13T13:19:45.200Z,1.73
2018-11-13T13:22:15.422Z,2.97
2018-11-13T13:24:45.969Z,1.67
2018-11-13T13:27:16.042Z,1.90
2018-11-13T13:29:45.179Z,1.70
2018-11-13T13:32:21.386Z,2.37
2018-11-13T13:34:50.639Z,3.00
2018-11-13T13:37:20.760Z,3.50
2018-11-13T13:39:50.444Z,3.00
2018-11-13T13:42:21.405Z,2.60
2018-11-13T13:44:50.582Z,1.87
2018-11-13T13:47:20.515Z,1.50
2018-11-13T13:49:51.127Z,2.23
2018-11-13T13:52:23.047Z,1.50
2018-11-13T13:54:53.710Z,1.83
2018-11-13T13:57:26.648Z,4.33
2018-11-13T14:01:24.952Z,2.60
2018-11-13T14:03:56.565Z,6.77
2018-11-13T14:06:45.996Z,20.03
2018-11-13T14:09:15.501Z,4.17
2018-11-13T14:11:45.812Z,3.30
2018-11-13T14:14:16.785Z,2.13
2018-11-13T14:16:47.764Z,1.63
2018-11-13T14:19:16.323Z,4.10
2018-11-13T14:21:49.619Z,1.57
2018-11-13T14:24:18.976Z,1.53
2018-11-13T14:26:48.499Z,2.73
2018-11-13T14:29:17.237Z,1.30
2018-11-13T14:31:46.256Z,1.30
2018-11-13T14:34:17.791Z,2.03
2018-11-13T14:36:47.428Z,1.77
2018-11-13T14:39:17.895Z,1.50
2018-11-13T14:41:46.966Z,2.63
2018-11-13T14:44:15.620Z,2.47
2018-11-13T14:46:44.974Z,1.67
2018-11-13T14:49:14.771Z,1.37
2018-11-13T14:51:44.856Z,1.40
2018-11-13T14:54:13.908Z,2.10
2018-11-13T14:56:45.252Z,1.80
2018-11-13T14:59:14.389Z,1.60
2018-11-13T15:01:43.501Z,1.80
2018-11-13T15:04:12.068Z,2.00
2018-11-13T15:06:42.147Z,2.03
2018-11-13T15:09:11.460Z,1.70
2018-11-13T15:11:40.225Z,1.70
2018-11-13T15:14:09.657Z,2.53
2018-11-13T15:16:40.364Z,3.83
2018-11-13T15:19:09.274Z,1.80
2018-11-13T15:21:40.991Z,1.73
2018-11-13T15:24:10.501Z,3.37
2018-11-13T15:26:39.648Z,3.23
2018-11-13T15:29:10.541Z,3.60
2018-11-13T15:31:40.790Z,3.60
2018-11-13T15:34:10.708Z,4.90
2018-11-13T15:36:40.980Z,3.70
2018-11-13T15:39:12.400Z,3.90
2018-11-13T15:41:41.823Z,2.83
2018-11-13T15:44:11.913Z,2.80
2018-11-13T15:46:41.144Z,3.17
2018-11-13T15:49:11.757Z,11.50
2018-11-13T15:51:44.789Z,4.70
2018-11-13T15:54:14.744Z,4.00
2018-11-13T15:56:44.456Z,3.63
2018-11-13T15:59:14.935Z,3.27
2018-11-13T16:01:45.643Z,5.37
2018-11-13T16:04:14.344Z,2.70
2018-11-13T16:06:44.270Z,2.50
2018-11-13T16:09:14.617Z,3.47
2018-11-13T16:11:44.241Z,4.60
2018-11-13T16:14:14.808Z,4.87
2018-11-13T16:16:44.291Z,5.87
2018-11-13T16:19:13.238Z,3.13
2018-11-13T16:21:42.403Z,5.77
2018-11-13T16:24:11.247Z,4.10
2018-11-13T16:26:41.931Z,7.27
2018-11-13T16:29:14.452Z,7.90
2018-11-13T16:31:43.680Z,16.30
2018-11-13T16:34:15.390Z,12.30
2018-11-13T16:36:45.855Z,5.50
2018-11-13T16:39:16.221Z,8.80
2018-11-13T16:41:46.963Z,6.13
2018-11-13T16:44:15.897Z,12.13
2018-11-13T16:46:45.922Z,6.73
2018-11-13T16:49:16.059Z,11.97
2018-11-13T16:51:46.031Z,9.00
2018-11-13T16:54:16.200Z,9.43
2018-11-13T16:56:48.766Z,6.13
2018-11-13T16:59:19.355Z,10.30
2018-11-13T17:01:49.421Z,10.07
2018-11-13T17:04:18.952Z,9.10
2018-11-13T17:06:47.610Z,8.03
2018-11-13T17:09:19.896Z,9.47
2018-11-13T17:11:49.785Z,15.60
2018-11-13T17:14:19.304Z,9.83
2018-11-13T17:16:49.192Z,11.13
2018-11-13T17:19:21.160Z,13.10
2018-11-13T17:21:52.466Z,9.20
2018-11-13T17:24:22.849Z,11.27
2018-11-13T17:26:51.896Z,7.93
2018-11-13T17:29:21.867Z,7.07
2018-11-13T17:31:51.268Z,8.13
2018-11-13T17:34:20.855Z,8.93
2018-11-13T17:36:49.881Z,4.90
2018-11-13T17:39:18.748Z,6.90
2018-11-13T17:41:48.438Z,9.10
2018-11-13T17:44:18.486Z,5.43
2018-11-13T17:46:47.860Z,8.17
2018-11-13T17:49:18.853Z,4.67
2018-11-13T17:51:49.010Z,5.20
2018-11-13T17:54:17.856Z,4.77
2018-11-13T17:56:48.823Z,4.90
2018-11-13T17:59:18.814Z,6.27
2018-11-13T18:01:48.264Z,4.67
2018-11-13T18:04:17.517Z,4.90
2018-11-13T18:06:48.395Z,5.00
2018-11-13T18:09:18.477Z,6.23
2018-11-13T18:11:49.693Z,4.43
2018-11-13T18:14:19.238Z,4.53
2018-11-13T18:16:48.194Z,4.80
2018-11-13T18:19:20.720Z,3.57
2018-11-13T18:21:50.427Z,4.80
2018-11-13T18:24:20.718Z,6.77
2018-11-13T18:26:51.054Z,7.30
2018-11-13T18:29:20.332Z,5.60
2018-11-13T18:31:51.426Z,5.67
2018-11-13T18:34:24.743Z,5.80
2018-11-13T18:36:55.329Z,5.67
2018-11-13T18:39:25.427Z,5.27
2018-11-13T18:41:56.473Z,4.60
2018-11-13T18:44:26.817Z,7.63
2018-11-13T18:46:58.355Z,5.20
2018-11-13T18:49:29.189Z,5.63
2018-11-13T18:52:03.504Z,6.37
2018-11-13T18:54:34.133Z,6.30
2018-11-13T18:57:03.722Z,7.23
2018-11-13T18:59:35.007Z,4.67
2018-11-13T19:02:05.296Z,10.23
2018-11-13T19:04:35.006Z,15.17
2018-11-13T19:07:03.849Z,9.00
2018-11-13T19:09:33.520Z,7.97
2018-11-13T19:12:04.515Z,8.00
2018-11-13T19:14:33.791Z,11.50
2018-11-13T19:17:04.758Z,10.20
2018-11-13T19:19:38.400Z,8.57
2018-11-13T19:22:08.713Z,10.07
2018-11-13T19:24:41.910Z,9.80
2018-11-13T19:27:11.805Z,13.27
2018-11-13T19:29:41.310Z,9.80
2018-11-13T19:32:11.728Z,7.90
2018-11-13T19:34:40.789Z,11.70
2018-11-13T19:37:11.108Z,9.27
2018-11-13T19:39:40.159Z,10.87
2018-11-13T19:42:09.333Z,9.37
2018-11-13T19:44:38.964Z,10.37
2018-11-13T19:47:07.938Z,10.80
2018-11-13T19:49:37.189Z,12.53
2018-11-13T19:52:06.718Z,19.33
2018-11-13T19:54:37.010Z,15.20
2018-11-13T19:57:09.284Z,14.60
2018-11-13T19:59:39.358Z,13.67
2018-11-13T20:02:08.901Z,13.00
2018-11-13T20:04:37.774Z,14.13
2018-11-13T20:07:08.464Z,14.90
2018-11-13T20:09:39.335Z,10.13
2018-11-13T20:12:09.645Z,10.73
2018-11-13T20:14:40.049Z,12.87
2018-11-13T20:17:12.245Z,10.70
2018-11-13T20:19:42.432Z,10.40
2018-11-13T20:22:13.664Z,10.07
2018-11-13T20:24:42.970Z,12.30
2018-11-13T20:27:12.913Z,9.67
2018-11-13T20:29:42.858Z,6.33
2018-11-13T20:32:13.451Z,5.10
2018-11-13T20:34:43.166Z,7.30
2018-11-13T20:37:13.520Z,10.10
2018-11-13T20:39:42.717Z,10.90
2018-11-13T20:42:12.620Z,8.80
2018-11-13T20:44:41.541Z,6.60
2018-11-13T20:47:11.856Z,8.80
2018-11-13T20:49:40.901Z,9.90
2018-11-13T20:52:11.549Z,9.67
2018-11-13T20:54:40.948Z,7.53
2018-11-13T20:57:10.620Z,13.00
2018-11-13T20:59:42.215Z,10.03
2018-11-13T21:02:15.189Z,10.80
2018-11-13T21:04:45.665Z,9.30
2018-11-13T21:07:16.364Z,13.03
2018-11-13T21:09:51.160Z,11.97
2018-11-13T21:12:22.177Z,10.53
2018-11-13T21:14:53.485Z,11.47
2018-11-13T21:17:22.279Z,7.40
2018-11-13T21:19:52.616Z,8.50
2018-11-13T21:22:22.383Z,8.30
2018-11-13T21:24:52.861Z,11.70
2018-11-13T21:27:22.421Z,9.13
2018-11-13T21:29:52.629Z,9.70
2018-11-13T21:32:22.608Z,10.70
2018-11-13T21:34:52.494Z,11.00
2018-11-13T21:37:21.065Z,11.60
2018-11-13T21:39:50.597Z,10.70
2018-11-13T21:42:21.156Z,11.37
2018-11-13T21:44:51.202Z,12.27
2018-11-13T21:47:21.354Z,11.77
2018-11-13T21:49:52.221Z,17.17
2018-11-13T21:52:21.833Z,12.77
2018-11-13T21:54:51.428Z,11.70
2018-11-13T21:57:20.769Z,12.27
2018-11-13T21:59:50.232Z,12.10
2018-11-13T22:02:19.896Z,10.40
2018-11-13T22:04:49.375Z,9.03
2018-11-13T22:07:19.223Z,9.00
2018-11-13T22:09:48.288Z,11.90
2018-11-13T22:12:17.170Z,13.17
2018-11-13T22:14:47.654Z,12.10
2018-11-13T22:17:18.455Z,12.20
2018-11-13T22:19:48.309Z,12.27
2018-11-13T22:22:19.049Z,10.40
2018-11-13T22:24:48.760Z,9.33
2018-11-13T22:27:17.933Z,9.13
2018-11-13T22:29:48.317Z,9.20
2018-11-13T22:32:18.398Z,9.33
2018-11-13T22:34:48.723Z,12.43
2018-11-13T22:37:20.315Z,10.67
2018-11-13T22:39:52.113Z,11.07
2018-11-13T22:42:23.818Z,10.27
2018-11-13T22:44:53.901Z,12.10
2018-11-13T22:47:24.842Z,14.00
2018-11-13T22:49:54.806Z,12.67
2018-11-13T22:52:24.867Z,13.17
2018-11-13T22:54:54.215Z,10.37
2018-11-13T22:57:24.132Z,12.30
2018-11-13T22:59:53.633Z,12.33
2018-11-13T23:02:25.685Z,13.63
2018-11-13T23:04:55.632Z,11.83
2018-11-13T23:07:25.231Z,13.93
2018-11-13T23:09:54.744Z,14.03
2018-11-13T23:12:24.828Z,12.00
2018-11-13T23:14:54.883Z,14.03
2018-11-13T23:17:25.970Z,11.70
2018-11-13T23:19:57.033Z,12.57
2018-11-13T23:22:27.202Z,10.57
2018-11-13T23:24:58.215Z,18.47
2018-11-13T23:27:27.332Z,12.27
2018-11-13T23:29:56.220Z,11.87
2018-11-13T23:32:26.314Z,11.07
2018-11-13T23:34:57.035Z,10.60
2018-11-13T23:37:26.491Z,9.40
2018-11-13T23:39:56.999Z,8.47
2018-11-13T23:42:27.655Z,10.13
2018-11-13T23:44:58.136Z,9.77
2018-11-13T23:47:27.773Z,11.60
2018-11-13T23:49:58.521Z,10.33
2018-11-13T23:52:27.100Z,9.90
2018-11-13T23:54:57.844Z,12.80
2018-11-13T23:57:26.669Z,10.80
2018-11-13T23:59:57.544Z,10.30
